Time;durP1;ratioP1;P1;durP2;ratioP2;P2;SDS_P1;SDS_P2;PMS_P1;PMS_P2;Temp;Humidity;BMP_temperature;BMP_pressure;BME280_temperature;BME280_humidity;BME280_pressure;Samples;Min_cycle;Max_cycle;Signal;HPM_P1;HPM_P2
2022/10/23 00:01:46;;;;;;;66.30;36.70;;;;;;;11.43;70.44;98978.98;103174;1304;107520;-78
2022/10/23 00:04:18;;;;;;;62.50;34.60;;;;;;;11.44;70.78;98985.70;103179;1298;98010;-80
2022/10/23 00:06:47;;;;;;;61.40;36.30;;;;;;;11.45;70.64;98986.50;103181;1303;97894;-82
2022/10/23 00:09:19;;;;;;;63.50;36.40;;;;;;;11.46;70.45;98988.17;103170;1303;110708;-79
2022/10/23 00:11:49;;;;;;;62.50;34.60;;;;;;;11.47;70.34;98983.85;103177;1298;97873;-83
2022/10/23 00:14:20;;;;;;;65.90;37.30;;;;;;;11.48;70.28;98984.86;103183;1298;107105;-80
2022/10/23 00:16:49;;;;;;;60.50;35.00;;;;;;;11.49;70.82;98986.56;103163;1303;97880;-80
2022/10/23 00:19:17;;;;;;;58.40;35.10;;;;;;;11.49;70.63;98991.52;103097;1297;95146;-79
2022/10/23 00:21:45;;;;;;;57.50;33.10;;;;;;;11.50;70.58;98997.13;103029;1303;111091;-78
2022/10/23 00:24:13;;;;;;;54.70;35.10;;;;;;;11.52;71.02;98996.14;103029;1296;98455;-78
2022/10/23 00:26:41;;;;;;;57.40;33.70;;;;;;;11.53;70.86;99000.11;103073;1298;107557;-79
2022/10/23 00:29:10;;;;;;;62.00;35.60;;;;;;;11.55;70.85;98997.30;103119;1298;97813;-80
2022/10/23 00:31:38;;;;;;;61.90;35.90;;;;;;;11.57;70.71;98996.09;103227;1303;97972;-83
2022/10/23 00:34:07;;;;;;;60.60;35.80;;;;;;;11.58;70.95;99001.30;103147;1297;111044;-83
2022/10/23 00:36:36;;;;;;;55.40;33.30;;;;;;;11.59;71.11;99007.27;103212;1310;97804;-81
2022/10/23 00:39:05;;;;;;;54.30;33.60;;;;;;;11.61;71.34;99010.48;103169;1311;107259;-79
2022/10/23 00:41:33;;;;;;;54.70;33.90;;;;;;;11.61;71.01;99012.40;103058;1297;98044;-79
2022/10/23 00:44:16;;;;;;;58.70;36.90;;;;;;;11.63;71.19;99017.05;102962;1297;95547;-80
2022/10/23 00:46:45;;;;;;;60.40;36.90;;;;;;;11.65;70.96;99022.63;103123;1297;111037;-81
2022/10/23 00:49:14;;;;;;;58.00;35.80;;;;;;;11.66;71.14;99026.29;103101;1299;97885;-81
2022/10/23 00:51:52;;;;;;;56.60;32.80;;;;;;;11.66;71.36;99025.90;103067;1310;107416;-81
2022/10/23 00:54:24;;;;;;;55.60;33.10;;;;;;;11.67;71.47;99032.03;103075;1297;98017;-80
2022/10/23 00:56:57;;;;;;;58.80;34.20;;;;;;;11.69;71.29;99035.25;103077;1296;97921;-80
2022/10/23 00:59:26;;;;;;;57.20;32.60;;;;;;;11.70;71.30;99029.69;103114;1303;111194;-80
2022/10/23 01:01:57;;;;;;;52.70;32.20;;;;;;;11.71;71.60;99032.27;103068;1304;97925;-78
2022/10/23 01:04:27;;;;;;;55.00;32.70;;;;;;;11.73;71.52;99032.86;103062;1303;106513;-79
2022/10/23 01:07:27;;;;;;;56.50;33.40;;;;;;;11.74;71.29;99032.60;103119;1303;97997;-79
2022/10/23 01:10:07;;;;;;;55.80;31.50;;;;;;;11.75;71.75;99036.05;103130;1302;97900;-80
2022/10/23 01:12:41;;;;;;;52.70;32.40;;;;;;;11.76;71.89;99040.61;103203;1297;111043;-81
2022/10/23 01:15:22;;;;;;;68.20;33.10;;;;;;;11.76;71.88;99041.27;103174;1297;98001;-80
2022/10/23 01:18:03;;;;;;;55.70;31.50;;;;;;;11.78;71.55;99042.80;103161;1303;107494;-79
2022/10/23 01:20:39;;;;;;;52.70;31.20;;;;;;;11.79;72.21;99047.14;103075;1304;98014;-80
2022/10/23 01:23:29;;;;;;;51.20;31.30;;;;;;;11.79;72.19;99051.05;103160;1303;97977;-80
2022/10/23 01:26:14;;;;;;;50.70;30.20;;;;;;;11.79;72.42;99055.15;103158;1304;111143;-80
2022/10/23 01:29:00;;;;;;;51.40;32.00;;;;;;;11.79;72.06;99057.23;103167;1303;95211;-81
2022/10/23 01:31:36;;;;;;;48.20;30.00;;;;;;;11.80;72.37;99059.13;103138;1298;107465;-82
2022/10/23 01:34:13;;;;;;;49.70;29.60;;;;;;;11.81;72.41;99063.89;103141;1294;98103;-80
2022/10/23 01:36:45;;;;;;;51.70;32.80;;;;;;;11.81;72.30;99066.69;103027;1307;96582;-80
2022/10/23 01:39:22;;;;;;;50.30;30.40;;;;;;;11.82;72.09;99068.81;103173;1303;111658;-80
2022/10/23 01:41:59;;;;;;;47.70;30.10;;;;;;;11.83;72.65;99074.52;103208;1303;97983;-80
2022/10/23 01:44:35;;;;;;;44.60;27.20;;;;;;;11.83;72.20;99073.10;103130;1303;106431;-81
2022/10/23 01:47:06;;;;;;;51.50;31.40;;;;;;;11.84;72.43;99073.91;103127;1303;97919;-81
2022/10/23 01:49:36;;;;;;;50.80;30.90;;;;;;;11.86;72.26;99075.20;103063;1305;96579;-81
2022/10/23 01:52:09;;;;;;;52.40;30.90;;;;;;;11.87;72.18;99078.46;103022;1303;110723;-80
2022/10/23 01:54:42;;;;;;;48.20;30.00;;;;;;;11.88;72.14;99082.29;103031;1298;97897;-80
2022/10/23 01:57:15;;;;;;;47.60;29.30;;;;;;;11.88;72.24;99083.16;103061;1303;107172;-81
2022/10/23 01:59:48;;;;;;;45.10;27.30;;;;;;;11.89;72.31;99083.63;103042;1306;98026;-80
2022/10/23 02:02:17;;;;;;;;;;;;;;;11.90;72.25;99091.75;103131;1306;95171;-80
2022/10/23 02:04:55;;;;;;;48.70;29.20;;;;;;;11.88;72.34;99089.56;103057;1308;110206;-80
2022/10/23 02:07:23;;;;;;;46.40;27.70;;;;;;;11.88;72.44;99093.32;103099;1305;97049;-80
2022/10/23 02:09:52;;;;;;;54.10;32.70;;;;;;;11.88;72.99;99097.41;103020;1303;107482;-80
2022/10/23 02:12:40;;;;;;;52.60;32.90;;;;;;;11.88;72.43;99094.60;102973;1307;95223;-80
2022/10/23 02:15:26;;;;;;;50.30;31.20;;;;;;;11.88;72.72;99106.79;103129;1302;97893;-81
2022/10/23 02:18:31;;;;;;;54.20;34.10;;;;;;;11.88;73.04;99107.38;103090;1294;111868;-79
2022/10/23 02:21:12;;;;;;;49.30;29.50;;;;;;;11.87;73.12;99112.58;103039;1296;98007;-79
2022/10/23 02:23:49;;;;;;;54.60;33.60;;;;;;;11.87;72.85;99109.21;103111;1304;107586;-80
2022/10/23 02:26:38;;;;;;;60.10;33.50;;;;;;;11.87;72.78;99114.15;103073;1303;97988;-79
2022/10/23 02:29:18;;;;;;;58.30;31.60;;;;;;;11.87;73.42;99117.36;103043;1296;96290;-78
2022/10/23 02:31:50;;;;;;;51.40;30.50;;;;;;;11.87;73.31;99119.16;103088;1303;111053;-78
2022/10/23 02:34:19;;;;;;;50.70;30.40;;;;;;;11.87;72.91;99121.45;103081;1304;99369;-80
2022/10/23 02:36:50;;;;;;;53.70;32.10;;;;;;;11.89;72.98;99122.06;103023;1297;107750;-80
2022/10/23 02:39:21;;;;;;;51.50;32.80;;;;;;;11.90;72.92;99128.20;103086;1303;95485;-81
2022/10/23 02:42:05;;;;;;;55.20;35.10;;;;;;;11.91;73.36;99129.50;103179;1298;97970;-81
2022/10/23 02:45:05;;;;;;;59.70;36.80;;;;;;;11.93;73.33;99129.60;103096;1299;110032;-79
2022/10/23 02:47:52;;;;;;;57.70;36.00;;;;;;;11.93;73.32;99126.41;103063;1296;96084;-80
2022/10/23 02:50:32;;;;;;;59.10;35.10;;;;;;;11.94;73.29;99126.85;103056;1296;107236;-80
2022/10/23 02:53:32;;;;;;;60.60;35.40;;;;;;;11.95;74.18;99134.91;103124;1304;97852;-81
2022/10/23 02:56:23;;;;;;;60.40;37.10;;;;;;;11.94;73.23;99134.78;103070;1304;98649;-80
2022/10/23 02:59:09;;;;;;;63.10;37.50;;;;;;;11.96;73.21;99138.77;103097;1297;111163;-80
2022/10/23 03:02:04;;;;;;;53.90;34.00;;;;;;;11.97;73.26;99139.05;103151;1294;97988;-81
2022/10/23 03:04:36;;;;;;;52.60;31.90;;;;;;;11.98;73.48;99140.57;103127;1304;107537;-80
2022/10/23 03:07:10;;;;;;;52.20;32.30;;;;;;;11.99;73.31;99144.60;103115;1302;97842;-81
2022/10/23 03:09:39;;;;;;;51.40;31.30;;;;;;;11.99;73.15;99147.80;103118;1298;95231;-79
2022/10/23 03:12:07;;;;;;;49.00;29.60;;;;;;;11.99;73.37;99150.96;103163;1303;109856;-82
2022/10/23 03:14:37;;;;;;;58.60;34.20;;;;;;;11.99;74.00;99152.43;103170;1304;97893;-79
2022/10/23 03:17:08;;;;;;;55.00;34.60;;;;;;;11.97;73.68;99150.59;103091;1302;106488;-80
2022/10/23 03:19:38;;;;;;;56.90;36.40;;;;;;;11.96;73.60;99152.06;103089;1305;96944;-81
2022/10/23 03:22:10;;;;;;;61.10;37.90;;;;;;;11.95;73.44;99155.88;103191;1303;97900;-82
2022/10/23 03:24:38;;;;;;;67.10;41.20;;;;;;;11.96;73.28;99159.58;103150;1295;111157;-82
2022/10/23 03:27:06;;;;;;;60.80;35.80;;;;;;;11.95;73.78;99165.98;103130;1303;95203;-82
2022/10/23 03:29:35;;;;;;;64.50;38.60;;;;;;;11.95;73.87;99165.68;103116;1303;107457;-83
2022/10/23 03:32:03;;;;;;;67.30;40.30;;;;;;;11.95;73.61;99164.81;103066;1296;97963;-80
2022/10/23 03:34:30;;;;;;;68.60;40.80;;;;;;;11.95;73.48;99167.94;103183;1304;97962;-81
2022/10/23 03:36:58;;;;;;;68.70;40.80;;;;;;;11.96;73.63;99169.85;103098;1303;111091;-79
2022/10/23 03:39:28;;;;;;;63.30;36.90;;;;;;;11.97;73.67;99170.51;103135;1297;95212;-81
2022/10/23 03:41:55;;;;;;;65.60;40.80;;;;;;;11.98;73.45;99173.64;103177;1304;106184;-80
2022/10/23 03:44:23;;;;;;;57.90;33.90;;;;;;;11.98;73.63;99175.41;103180;1298;98000;-79
2022/10/23 03:46:51;;;;;;;59.30;35.40;;;;;;;11.97;74.43;99175.10;103061;1304;97865;-78
2022/10/23 03:49:19;;;;;;;58.00;35.70;;;;;;;11.97;74.13;99175.12;103058;1304;111146;-80
2022/10/23 03:51:50;;;;;;;55.80;35.30;;;;;;;11.98;73.86;99173.27;103084;1303;98488;-77
2022/10/23 03:54:25;;;;;;;55.80;33.50;;;;;;;12.00;74.02;99177.07;103040;1303;108162;-80
2022/10/23 03:56:55;;;;;;;50.50;30.40;;;;;;;12.00;74.48;99180.56;103083;1302;96319;-81
2022/10/23 03:59:29;;;;;;;53.60;32.60;;;;;;;12.01;74.63;99182.31;103119;1298;97891;-82
2022/10/23 04:01:58;;;;;;;58.10;34.10;;;;;;;12.02;74.08;99182.36;103126;1302;111133;-82
2022/10/23 04:04:28;;;;;;;60.90;34.40;;;;;;;12.04;73.86;99184.91;103165;1302;98399;-81
2022/10/23 04:06:56;;;;;;;53.20;33.10;;;;;;;12.05;73.90;99190.83;103113;1294;107128;-82
2022/10/23 04:09:23;;;;;;;56.80;33.60;;;;;;;12.06;73.99;99190.80;103108;1302;97978;-80
2022/10/23 04:11:51;;;;;;;55.00;33.00;;;;;;;12.06;74.29;99188.11;103135;1299;95478;-80
2022/10/23 04:14:22;;;;;;;53.00;32.20;;;;;;;12.07;74.00;99187.88;103122;1297;111107;-80
2022/10/23 04:16:50;;;;;;;54.40;31.40;;;;;;;12.08;74.17;99188.52;103156;1305;96994;-81
2022/10/23 04:19:18;;;;;;;53.60;33.20;;;;;;;12.08;74.09;99187.60;103111;1297;107247;-81
2022/10/23 04:21:46;;;;;;;48.50;31.10;;;;;;;12.10;74.07;99192.14;103077;1302;97891;-80
2022/10/23 04:24:14;;;;;;;50.80;32.00;;;;;;;12.11;74.40;99198.27;103215;1306;97812;-80
2022/10/23 04:26:42;;;;;;;55.40;33.10;;;;;;;12.11;74.08;99192.58;103122;1302;111095;-80
2022/10/23 04:29:09;;;;;;;52.30;32.40;;;;;;;12.11;74.35;99193.80;103164;1305;97892;-80
2022/10/23 04:31:37;;;;;;;50.50;32.00;;;;;;;12.11;74.03;99191.54;103057;1297;107458;-82
2022/10/23 04:34:05;;;;;;;51.70;31.40;;;;;;;12.11;74.06;99190.97;103044;1303;97990;-80
2022/10/23 04:36:37;;;;;;;55.30;32.80;;;;;;;12.11;74.18;99196.11;103027;1303;97836;-79
2022/10/23 04:39:08;;;;;;;47.10;29.30;;;;;;;12.12;74.10;99196.80;103019;1304;110907;-78
2022/10/23 04:41:37;;;;;;;49.80;31.10;;;;;;;12.11;74.16;99196.64;103164;1297;97894;-81
2022/10/23 04:44:08;;;;;;;49.40;31.50;;;;;;;12.11;74.29;99202.85;103106;1296;126413;-79
2022/10/23 04:46:36;;;;;;;49.30;30.40;;;;;;;12.11;74.25;99201.46;102994;1305;97999;-77
2022/10/23 04:49:04;;;;;;;45.50;30.50;;;;;;;12.11;74.14;99197.00;103159;1303;97920;-77
2022/10/23 04:51:33;;;;;;;46.60;27.10;;;;;;;12.11;74.32;99200.04;103138;1304;111877;-77
2022/10/23 04:54:01;;;;;;;45.40;28.30;;;;;;;12.11;74.19;99202.73;102989;1296;96962;-80
2022/10/23 04:56:29;;;;;;;44.60;28.10;;;;;;;12.11;74.23;99206.27;102830;1304;107468;-80
2022/10/23 04:58:56;;;;;;;42.20;26.60;;;;;;;12.11;74.11;99208.21;102999;1297;97856;-80
2022/10/23 05:01:24;;;;;;;42.50;26.90;;;;;;;12.12;74.06;99212.04;103061;1302;97905;-80
2022/10/23 05:03:56;;;;;;;42.80;26.50;;;;;;;12.13;74.10;99215.14;103025;1303;111282;-79
2022/10/23 05:06:24;;;;;;;40.60;25.20;;;;;;;12.13;74.16;99216.91;103150;1297;97885;-80
2022/10/23 05:08:55;;;;;;;40.70;25.40;;;;;;;12.13;74.05;99218.20;103149;1304;107350;-80
2022/10/23 05:11:24;;;;;;;38.40;22.90;;;;;;;12.13;74.13;99221.73;103115;1296;97840;-79
2022/10/23 05:13:51;;;;;;;37.30;22.90;;;;;;;12.13;74.13;99226.86;103020;1298;97935;-79
2022/10/23 05:16:38;;;;;;;38.10;21.40;;;;;;;12.14;74.28;99229.27;102943;1297;111135;-79
2022/10/23 05:19:09;;;;;;;33.60;20.70;;;;;;;12.15;74.26;99232.92;103004;1305;98010;-78
2022/10/23 05:21:40;;;;;;;35.60;20.20;;;;;;;12.17;74.06;99237.63;103109;1297;107421;-77
2022/10/23 05:24:10;;;;;;;34.60;20.10;;;;;;;12.17;74.18;99238.46;103126;1297;97887;-79
2022/10/23 05:26:38;;;;;;;30.70;17.80;;;;;;;12.19;74.45;99243.70;103155;1297;98009;-79
2022/10/23 05:29:06;;;;;;;32.90;18.20;;;;;;;12.19;74.16;99245.80;103121;1305;110973;-77
2022/10/23 05:31:35;;;;;;;29.10;16.90;;;;;;;12.20;74.33;99247.48;103099;1303;98013;-78
2022/10/23 05:34:06;;;;;;;30.40;17.80;;;;;;;12.21;74.14;99246.71;103139;1300;107588;-79
2022/10/23 05:36:40;;;;;;;30.70;17.80;;;;;;;12.23;74.19;99249.59;103108;1297;95808;-79
2022/10/23 05:39:08;;;;;;;30.10;17.60;;;;;;;12.25;74.08;99251.02;103136;1297;95358;-79
2022/10/23 05:41:36;;;;;;;30.30;18.20;;;;;;;12.27;74.06;99251.58;103101;1297;110830;-80
2022/10/23 05:44:03;;;;;;;34.00;17.50;;;;;;;12.28;74.20;99254.54;103030;1303;95780;-80
2022/10/23 05:46:31;;;;;;;31.00;17.80;;;;;;;12.29;74.12;99258.94;103048;1303;106324;-80
2022/10/23 05:48:59;;;;;;;33.00;19.30;;;;;;;12.30;74.29;99258.98;103075;1304;97041;-79
2022/10/23 05:51:28;;;;;;;32.90;19.80;;;;;;;12.32;74.15;99262.41;103143;1303;97980;-83
2022/10/23 05:53:57;;;;;;;33.50;18.90;;;;;;;12.33;74.40;99267.29;103010;1304;111458;-79
2022/10/23 05:56:28;;;;;;;37.90;19.80;;;;;;;12.33;74.42;99272.82;103091;1303;97997;-77
2022/10/23 05:58:55;;;;;;;34.60;21.30;;;;;;;12.34;74.23;99277.04;103037;1303;107371;-79
2022/10/23 06:01:24;;;;;;;34.00;19.50;;;;;;;12.35;74.19;99278.35;103135;1297;97983;-78
2022/10/23 06:03:54;;;;;;;35.70;20.70;;;;;;;12.37;74.22;99283.58;102942;1304;95278;-79
2022/10/23 06:06:21;;;;;;;32.20;18.20;;;;;;;12.38;74.63;99287.76;102980;1305;111157;-79
2022/10/23 06:08:49;;;;;;;31.80;19.50;;;;;;;12.39;74.24;99284.15;103053;1305;97965;-80
2022/10/23 06:11:19;;;;;;;32.20;20.20;;;;;;;12.40;74.09;99284.41;103097;1295;107499;-80
2022/10/23 06:13:48;;;;;;;31.10;20.00;;;;;;;12.41;74.18;99278.61;103108;1304;95980;-78
2022/10/23 06:16:23;;;;;;;35.00;20.40;;;;;;;12.43;74.25;99276.87;103154;1298;98353;-79
2022/10/23 06:18:51;;;;;;;32.90;19.40;;;;;;;12.46;74.39;99279.30;103107;1302;111343;-79
2022/10/23 06:21:19;;;;;;;34.10;19.90;;;;;;;12.49;74.43;99280.09;103086;1298;97838;-78
2022/10/23 06:23:49;;;;;;;31.90;18.90;;;;;;;12.53;74.30;99282.34;103045;1305;107477;-78
2022/10/23 06:26:20;;;;;;;32.60;19.60;;;;;;;12.57;74.28;99281.33;103046;1299;98579;-78
2022/10/23 06:28:47;;;;;;;31.60;18.90;;;;;;;12.62;74.40;99282.54;103145;1294;97936;-78
2022/10/23 06:31:17;;;;;;;32.00;19.10;;;;;;;12.68;74.31;99283.45;103065;1289;111743;-78
2022/10/23 06:33:47;;;;;;;34.40;20.30;;;;;;;12.73;74.49;99287.04;103098;1302;97264;-77
2022/10/23 06:36:14;;;;;;;30.90;18.70;;;;;;;12.75;74.31;99289.70;103130;1299;107561;-79
2022/10/23 06:38:43;;;;;;;34.00;19.80;;;;;;;12.76;74.36;99289.79;103078;1297;99100;-79
2022/10/23 06:41:16;;;;;;;32.20;20.00;;;;;;;12.77;74.31;99285.42;103120;1304;96967;-79
2022/10/23 06:43:48;;;;;;;31.70;19.40;;;;;;;12.78;74.20;99283.23;102926;1293;110605;-78
2022/10/23 06:46:18;;;;;;;31.10;18.60;;;;;;;12.79;74.31;99284.80;103081;1302;95155;-79
2022/10/23 06:48:47;;;;;;;33.90;19.60;;;;;;;12.78;74.32;99282.86;103112;1297;107462;-81
2022/10/23 06:51:17;;;;;;;32.40;19.90;;;;;;;12.79;74.38;99286.01;103143;1298;98514;-83
2022/10/23 06:53:46;;;;;;;37.10;19.10;;;;;;;12.84;74.39;99286.21;103145;1304;97909;-79
2022/10/23 06:56:14;;;;;;;30.80;18.30;;;;;;;12.90;74.43;99285.13;103131;1298;110966;-79
2022/10/23 06:58:42;;;;;;;32.30;18.10;;;;;;;12.99;74.27;99287.69;103150;1296;95562;-77
2022/10/23 07:01:12;;;;;;;32.40;19.70;;;;;;;13.05;74.40;99290.53;103025;1298;105512;-79
2022/10/23 07:03:42;;;;;;;32.50;19.20;;;;;;;13.09;74.23;99295.73;103012;1304;95190;-79
2022/10/23 07:06:11;;;;;;;33.00;19.10;;;;;;;13.14;74.19;99295.36;103038;1298;97979;-80
2022/10/23 07:08:39;;;;;;;31.10;18.50;;;;;;;13.18;74.26;99297.20;103147;1296;111177;-79
2022/10/23 07:11:10;;;;;;;31.60;17.80;;;;;;;13.22;74.31;99296.75;103060;1304;97986;-80
2022/10/23 07:13:39;;;;;;;32.70;18.60;;;;;;;13.29;74.20;99301.14;103075;1305;107183;-78
2022/10/23 07:16:14;;;;;;;31.50;17.60;;;;;;;13.34;74.28;99300.90;103040;1304;97892;-78
2022/10/23 07:18:47;;;;;;;30.40;17.70;;;;;;;13.35;74.15;99299.20;103071;1296;95142;-81
2022/10/23 07:21:17;;;;;;;32.10;18.50;;;;;;;13.35;74.18;99300.63;103206;1303;111085;-81
2022/10/23 07:23:44;;;;;;;30.50;17.60;;;;;;;13.36;74.16;99300.23;103104;1304;97909;-79
2022/10/23 07:26:15;;;;;;;32.00;19.00;;;;;;;13.37;74.17;99297.96;103028;1303;105612;-77
2022/10/23 07:28:46;;;;;;;37.00;19.90;;;;;;;13.38;74.16;99295.60;103042;1300;98008;-79
2022/10/23 07:31:14;;;;;;;33.40;19.10;;;;;;;13.38;74.14;99292.54;103037;1301;97882;-82
2022/10/23 07:33:45;;;;;;;31.30;18.00;;;;;;;13.39;74.06;99294.05;103144;1296;111082;-78
2022/10/23 07:36:14;;;;;;;31.40;17.90;;;;;;;13.39;74.12;99296.23;102962;1304;97713;-77
2022/10/23 07:38:42;;;;;;;32.00;16.90;;;;;;;13.40;74.18;99300.79;103012;1298;108165;-78
2022/10/23 07:41:12;;;;;;;28.80;17.40;;;;;;;13.43;74.17;99301.13;103040;1302;97845;-78
2022/10/23 07:43:40;;;;;;;30.90;17.50;;;;;;;13.48;74.31;99301.75;103170;1303;97908;-79
2022/10/23 07:46:08;;;;;;;29.30;17.20;;;;;;;13.55;74.31;99298.71;103088;1304;111166;-78
2022/10/23 07:48:38;;;;;;;31.30;15.80;;;;;;;13.63;74.32;99308.07;103052;1311;96943;-78
2022/10/23 07:51:13;;;;;;;28.60;16.50;;;;;;;13.72;74.23;99308.23;103024;1297;108659;-79
2022/10/23 07:53:42;;;;;;;26.80;15.40;;;;;;;13.80;74.30;99307.73;103146;1296;98018;-79
2022/10/23 07:56:25;;;;;;;28.50;15.70;;;;;;;13.91;74.22;99309.67;103153;1297;96424;-79
2022/10/23 07:58:53;;;;;;;25.50;13.90;;;;;;;14.00;74.24;99317.50;103142;1290;111057;-78
2022/10/23 08:01:37;;;;;;;23.60;13.30;;;;;;;14.08;74.15;99316.17;103154;1296;97884;-78
2022/10/23 08:04:09;;;;;;;28.00;13.60;;;;;;;14.10;74.12;99314.00;103126;1289;106578;-79
2022/10/23 08:06:37;;;;;;;27.90;13.90;;;;;;;14.15;74.11;99316.99;102996;1298;97976;-78
2022/10/23 08:09:07;;;;;;;25.60;13.90;;;;;;;14.18;73.90;99318.77;103145;1297;97922;-78
2022/10/23 08:11:36;;;;;;;26.60;14.50;;;;;;;14.19;73.94;99315.29;103075;1304;111238;-80
2022/10/23 08:14:08;;;;;;;27.10;12.90;;;;;;;14.21;73.95;99316.48;103018;1296;97962;-78
2022/10/23 08:16:38;;;;;;;25.50;13.80;;;;;;;14.23;73.89;99328.25;103121;1304;107433;-79
2022/10/23 08:19:07;;;;;;;31.40;14.90;;;;;;;14.28;73.97;99323.77;103077;1296;97902;-78
2022/10/23 08:21:37;;;;;;;26.00;14.20;;;;;;;14.38;74.06;99326.34;103133;1304;98674;-79
2022/10/23 08:24:06;;;;;;;28.50;15.20;;;;;;;14.46;74.03;99335.26;103133;1297;111006;-77
2022/10/23 08:26:33;;;;;;;27.30;15.40;;;;;;;14.53;73.89;99339.13;103160;1303;98020;-77
2022/10/23 08:29:01;;;;;;;26.70;14.90;;;;;;;14.57;73.75;99340.40;103123;1304;107563;-78
2022/10/23 08:31:30;;;;;;;25.50;14.00;;;;;;;14.59;73.81;99341.89;103111;1301;98433;-79
2022/10/23 08:33:58;;;;;;;26.60;14.30;;;;;;;14.66;73.82;99345.41;102994;1299;98101;-78
2022/10/23 08:36:28;;;;;;;28.30;14.00;;;;;;;14.73;73.78;99344.64;103116;1303;111164;-80
2022/10/23 08:38:58;;;;;;;27.70;14.10;;;;;;;14.83;73.71;99352.55;103028;1296;98319;-80
2022/10/23 08:41:42;;;;;;;28.00;15.00;;;;;;;14.89;73.77;99350.38;103047;1304;108260;-77
2022/10/23 08:44:28;;;;;;;;;;;;;;;14.99;73.72;99352.45;103139;1297;95163;-78
2022/10/23 08:47:23;;;;;;;25.40;13.30;;;;;;;15.05;73.43;99357.29;103108;1304;97792;-78
2022/10/23 08:50:24;;;;;;;23.20;12.50;;;;;;;15.16;73.63;99356.48;103128;1298;111168;-83
2022/10/23 08:53:08;;;;;;;25.50;12.70;;;;;;;15.31;73.57;99358.25;103191;1296;97971;-78
2022/10/23 08:55:42;;;;;;;22.70;11.70;;;;;;;15.38;73.61;99363.91;103118;1304;106498;-77
2022/10/23 08:58:28;;;;;;;21.90;11.00;;;;;;;15.45;73.37;99364.73;103184;1304;98023;-78
2022/10/23 09:00:59;;;;;;;24.00;11.70;;;;;;;15.49;73.43;99368.66;103075;1297;96942;-78
2022/10/23 09:03:28;;;;;;;23.50;11.50;;;;;;;15.52;73.36;99369.48;103065;1299;110712;-80
2022/10/23 09:06:25;;;;;;;22.90;11.20;;;;;;;15.65;73.34;99376.36;103140;1304;97847;-78
2022/10/23 09:09:03;;;;;;;20.00;9.60;;;;;;;15.82;73.20;99378.08;103072;1297;107545;-75
2022/10/23 09:11:41;;;;;;;20.50;10.20;;;;;;;15.97;73.05;99381.70;103187;1296;97982;-77
2022/10/23 09:14:35;;;;;;;21.80;9.30;;;;;;;16.05;72.89;99379.63;103123;1304;97993;-80
2022/10/23 09:17:15;;;;;;;23.90;10.00;;;;;;;15.98;72.70;99386.88;103090;1297;111103;-79
2022/10/23 09:19:46;;;;;;;23.50;9.70;;;;;;;15.89;72.69;99389.97;103129;1304;97596;-74
2022/10/23 09:22:16;;;;;;;19.90;10.20;;;;;;;15.81;72.68;99390.87;103134;1297;107935;-77
2022/10/23 09:24:43;;;;;;;20.60;10.00;;;;;;;15.72;72.35;99390.52;103104;1297;97900;-80
2022/10/23 09:27:21;;;;;;;21.90;10.20;;;;;;;15.68;72.77;99384.09;103125;1301;98288;-78
2022/10/23 09:29:52;;;;;;;22.30;10.50;;;;;;;15.72;72.66;99386.08;103079;1304;111182;-76
2022/10/23 09:32:34;;;;;;;20.40;9.80;;;;;;;15.73;72.94;99386.90;103086;1299;98004;-78
2022/10/23 09:35:04;;;;;;;21.10;10.20;;;;;;;15.78;72.93;99386.13;103005;1303;106555;-76
2022/10/23 09:37:40;;;;;;;21.50;10.50;;;;;;;15.86;72.85;99385.41;103057;1303;97896;-77
2022/10/23 09:40:21;;;;;;;24.50;11.70;;;;;;;15.84;72.72;99386.12;103118;1297;97885;-77
2022/10/23 09:43:00;;;;;;;25.20;12.10;;;;;;;15.73;72.53;99388.88;103105;1297;110889;-76
2022/10/23 09:45:34;;;;;;;25.30;13.60;;;;;;;15.64;72.53;99389.31;103080;1300;97962;-75
2022/10/23 09:48:13;;;;;;;25.20;12.40;;;;;;;15.60;72.71;99391.80;103019;1297;107114;-76
2022/10/23 09:51:05;;;;;;;23.30;11.90;;;;;;;15.56;72.80;99386.42;103084;1303;97780;-75
2022/10/23 09:53:55;;;;;;;25.70;11.40;;;;;;;15.55;72.84;99379.17;102961;1299;97880;-76
2022/10/23 09:56:35;;;;;;;23.10;11.80;;;;;;;15.57;72.62;99377.02;103073;1307;109997;-76
2022/10/23 09:59:20;;;;;;;22.10;10.60;;;;;;;15.63;72.72;99377.41;103055;1302;95210;-75
2022/10/23 10:01:57;;;;;;;22.50;11.50;;;;;;;15.70;72.71;99372.86;103051;1305;107322;-77
2022/10/23 10:04:38;;;;;;;20.40;10.00;;;;;;;15.74;72.50;99373.16;102980;1307;97964;-75
2022/10/23 10:07:22;;;;;;;19.90;9.70;;;;;;;15.74;72.48;99374.45;103029;1297;97879;-76
2022/10/23 10:09:55;;;;;;;21.90;10.70;;;;;;;15.76;72.44;99380.02;103095;1305;111264;-74
2022/10/23 10:12:47;;;;;;;20.00;9.40;;;;;;;15.83;72.45;99379.59;103081;1290;97432;-76
2022/10/23 10:15:54;;;;;;;24.60;10.70;;;;;;;15.90;72.30;99374.86;103031;1300;107822;-76
2022/10/23 10:18:42;;;;;;;19.90;9.20;;;;;;;15.97;72.27;99375.16;102971;1299;97999;-76
2022/10/23 10:21:37;;;;;;;23.00;8.90;;;;;;;16.12;72.11;99369.32;102933;1298;97866;-77
2022/10/23 10:24:41;;;;;;;19.10;9.00;;;;;;;16.27;72.13;99369.02;102855;1305;111199;-80
2022/10/23 10:27:30;;;;;;;20.20;9.10;;;;;;;16.40;72.01;99362.48;102728;1303;97700;-75
2022/10/23 10:30:20;;;;;;;21.20;9.40;;;;;;;16.54;72.00;99354.41;102822;1300;107635;-76
2022/10/23 10:32:58;;;;;;;18.30;7.40;;;;;;;16.68;72.09;99352.06;103225;1297;95257;-74
2022/10/23 10:35:39;;;;;;;21.10;7.70;;;;;;;16.84;71.99;99349.28;102745;1299;97987;-78
2022/10/23 10:38:26;;;;;;;18.40;7.00;;;;;;;16.95;71.85;99343.74;102936;1289;110980;-75
2022/10/23 10:41:34;;;;;;;16.50;6.50;;;;;;;17.05;71.87;99339.84;103010;1297;97836;-77
2022/10/23 10:44:25;;;;;;;17.10;6.30;;;;;;;17.22;71.64;99339.58;102779;1300;106627;-73
2022/10/23 10:47:21;;;;;;;15.10;5.50;;;;;;;17.27;71.31;99340.80;102946;1290;97970;-75
2022/10/23 10:50:34;;;;;;;15.10;6.40;;;;;;;17.33;71.26;99336.98;102960;1299;98000;-75
2022/10/23 10:53:25;;;;;;;15.20;5.70;;;;;;;17.50;71.54;99331.97;102523;1302;111390;-78
2022/10/23 10:55:56;;;;;;;17.50;6.80;;;;;;;17.62;71.24;99325.75;102922;1297;96415;-81
2022/10/23 10:58:32;;;;;;;16.20;5.90;;;;;;;17.66;71.40;99320.71;102929;1296;107481;-75
2022/10/23 11:01:14;;;;;;;11.50;5.60;;;;;;;17.71;71.53;99322.02;103015;1297;97999;-76
2022/10/23 11:03:53;;;;;;;12.00;5.30;;;;;;;17.78;71.15;99317.68;102962;1296;97975;-77
2022/10/23 11:06:26;;;;;;;12.90;5.50;;;;;;;17.78;71.01;99310.70;102976;1299;111329;-77
2022/10/23 11:08:55;;;;;;;13.80;5.30;;;;;;;17.82;70.91;99303.33;102981;1304;97886;-76
2022/10/23 11:11:43;;;;;;;15.80;5.70;;;;;;;17.87;70.83;99302.31;102995;1304;107350;-77
2022/10/23 11:14:21;;;;;;;13.30;5.20;;;;;;;17.92;70.74;99305.92;103022;1304;97947;-75
2022/10/23 11:16:58;;;;;;;16.10;5.90;;;;;;;18.04;70.78;99300.48;102995;1290;96386;-77
2022/10/23 11:19:56;;;;;;;13.50;5.60;;;;;;;18.18;70.88;99298.20;103102;1297;111224;-75
2022/10/23 11:23:12;;;;;;;16.10;6.40;;;;;;;18.32;70.75;99291.29;102972;1291;97698;-76
2022/10/23 11:25:47;;;;;;;13.60;5.10;;;;;;;18.36;70.57;99288.96;102808;1297;106646;-76
2022/10/23 11:28:25;;;;;;;17.00;6.00;;;;;;;18.42;70.51;99281.39;103047;1297;97898;-75
2022/10/23 11:30:59;;;;;;;14.60;5.40;;;;;;;18.43;70.43;99275.90;103082;1298;97949;-74
2022/10/23 11:33:51;;;;;;;14.00;5.80;;;;;;;18.41;70.20;99275.00;103048;1303;111295;-76
2022/10/23 11:36:40;;;;;;;13.30;5.20;;;;;;;18.41;70.05;99272.00;103069;1298;97918;-76
2022/10/23 11:39:21;;;;;;;13.80;5.20;;;;;;;18.39;69.97;99276.46;103001;1298;106609;-76
2022/10/23 11:41:57;;;;;;;11.90;5.30;;;;;;;18.37;69.85;99280.08;103024;1299;97965;-78